createdAt,value
2019-02-28T00:04:32.005Z,2.97
2019-02-28T00:09:33.379Z,4.04
2019-02-28T00:14:41.072Z,4.42
2019-02-28T00:19:47.377Z,2.77
2019-02-28T00:24:53.521Z,4.55
2019-02-28T00:29:59.501Z,3.51
2019-02-28T00:35:05.655Z,3.18
2019-02-28T00:40:12.085Z,3.00
2019-02-28T00:45:18.146Z,3.20
2019-02-28T00:50:24.136Z,3.03
2019-02-28T00:55:30.356Z,3.12
2019-02-28T01:00:38.058Z,3.17
2019-02-28T01:05:41.930Z,2.93
2019-02-28T01:10:47.901Z,2.91
2019-02-28T01:15:53.900Z,3.05
2019-02-28T01:20:59.931Z,4.53
2019-02-28T01:26:05.945Z,3.03
2019-02-28T01:31:12.301Z,3.06
2019-02-28T01:36:17.963Z,3.15
2019-02-28T01:41:23.949Z,3.38
2019-02-28T01:46:29.944Z,3.38
2019-02-28T01:51:36.806Z,5.42
2019-02-28T01:56:41.787Z,3.66
2019-02-28T02:01:47.819Z,5.35
2019-02-28T02:06:53.839Z,4.09
2019-02-28T02:11:59.867Z,5.63
2019-02-28T02:17:05.879Z,3.75
2019-02-28T02:22:11.871Z,5.53
2019-02-28T02:27:19.643Z,3.84
2019-02-28T02:32:23.407Z,5.51
2019-02-28T02:37:30.423Z,3.69
2019-02-28T02:42:34.943Z,4.08
2019-02-28T02:47:40.982Z,3.94
2019-02-28T02:52:46.979Z,4.15
2019-02-28T02:57:52.966Z,4.05
2019-02-28T03:02:58.933Z,4.15
2019-02-28T03:08:04.946Z,3.99
2019-02-28T03:13:10.969Z,3.93
2019-02-28T03:18:20.480Z,3.92
2019-02-28T03:23:22.492Z,3.94
2019-02-28T03:28:32.069Z,6.36
2019-02-28T03:33:34.013Z,3.93
2019-02-28T03:38:39.987Z,4.15
2019-02-28T03:43:46.144Z,4.06
2019-02-28T03:48:52.192Z,4.16
2019-02-28T03:53:58.186Z,4.12
2019-02-28T03:59:04.219Z,4.46
2019-02-28T04:04:12.118Z,4.31
2019-02-28T04:09:15.753Z,4.12
2019-02-28T04:14:21.741Z,6.63
2019-02-28T04:19:27.733Z,4.56
2019-02-28T04:24:33.767Z,4.19
2019-02-28T04:29:39.800Z,4.49
2019-02-28T04:34:49.020Z,4.59
2019-02-28T04:39:53.375Z,4.72
2019-02-28T04:44:56.899Z,4.82
2019-02-28T04:50:02.927Z,4.81
2019-02-28T04:55:09.387Z,5.07
2019-02-28T05:00:15.467Z,5.05
2019-02-28T05:05:21.799Z,5.17
2019-02-28T05:10:27.970Z,4.78
2019-02-28T05:15:37.325Z,5.12
2019-02-28T05:20:44.777Z,5.56
2019-02-28T05:25:45.436Z,8.24
2019-02-28T05:30:53.668Z,5.13
2019-02-28T05:36:00.163Z,5.32
2019-02-28T05:41:05.138Z,5.76
2019-02-28T05:46:11.165Z,5.70
2019-02-28T05:51:17.225Z,5.95
2019-02-28T05:56:23.233Z,6.20
2019-02-28T06:01:29.217Z,6.27
2019-02-28T06:06:35.425Z,6.10
2019-02-28T06:11:41.435Z,9.36
2019-02-28T06:16:47.583Z,6.65
2019-02-28T06:21:56.343Z,6.47
2019-02-28T06:26:59.266Z,6.74
2019-02-28T06:32:05.437Z,6.75
2019-02-28T06:37:11.492Z,6.93
2019-02-28T06:42:17.616Z,6.85
2019-02-28T06:47:23.647Z,6.90
2019-02-28T06:52:29.652Z,6.87
2019-02-28T06:57:35.765Z,7.01
2019-02-28T07:02:41.777Z,10.37
2019-02-28T07:07:49.032Z,7.13
2019-02-28T07:12:53.316Z,9.92
2019-02-28T07:17:59.304Z,6.60
2019-02-28T07:23:05.337Z,6.36
2019-02-28T07:28:11.489Z,6.56
2019-02-28T07:33:17.490Z,8.49
2019-02-28T07:38:25.620Z,6.16
2019-02-28T07:43:29.162Z,6.46
2019-02-28T07:48:35.184Z,6.73
2019-02-28T07:53:42.006Z,11.27
2019-02-28T07:58:46.694Z,7.78
2019-02-28T08:03:52.700Z,11.15
2019-02-28T08:08:58.810Z,8.28
2019-02-28T08:14:04.445Z,8.06
2019-02-28T08:19:10.490Z,7.69
2019-02-28T08:24:16.540Z,11.66
2019-02-28T08:29:22.532Z,8.44
2019-02-28T08:34:28.656Z,13.27
2019-02-28T08:39:34.830Z,9.97
2019-02-28T08:44:41.065Z,9.26
2019-02-28T08:49:47.072Z,14.79
2019-02-28T08:54:53.052Z,10.36
2019-02-28T08:59:59.066Z,10.48
2019-02-28T09:05:06.654Z,10.31
2019-02-28T09:10:12.578Z,10.92
2019-02-28T09:15:16.255Z,11.05
2019-02-28T09:20:22.267Z,11.14
2019-02-28T09:25:28.273Z,11.56
2019-02-28T09:30:34.253Z,11.80
2019-02-28T09:35:45.302Z,12.24
2019-02-28T09:40:45.851Z,13.38
2019-02-28T09:45:51.863Z,13.41
2019-02-28T09:50:59.100Z,13.44
2019-02-28T09:56:09.040Z,13.04
2019-02-28T10:01:08.923Z,13.22
2019-02-28T10:06:16.433Z,13.35
2019-02-28T10:11:21.839Z,19.85
2019-02-28T10:16:26.162Z,13.48
2019-02-28T10:21:33.268Z,12.88
2019-02-28T10:26:37.832Z,13.98
2019-02-28T10:31:43.858Z,20.78
2019-02-28T10:36:49.848Z,14.37
2019-02-28T10:41:55.853Z,14.16
2019-02-28T10:47:01.837Z,21.10
2019-02-28T10:52:07.854Z,21.71
2019-02-28T10:57:14.079Z,14.18
2019-02-28T11:02:20.094Z,21.88
2019-02-28T11:07:26.226Z,14.82
2019-02-28T11:12:32.285Z,23.73
2019-02-28T11:17:38.298Z,16.80
2019-02-28T11:22:44.315Z,16.81
2019-02-28T11:27:53.746Z,16.96
2019-02-28T11:32:56.429Z,25.78
2019-02-28T11:38:02.523Z,18.09
2019-02-28T11:43:08.652Z,17.40
2019-02-28T11:48:19.070Z,23.68
2019-02-28T11:53:20.208Z,16.66
2019-02-28T11:58:26.212Z,16.28
2019-02-28T12:03:35.566Z,16.01
2019-02-28T12:08:37.811Z,23.41
2019-02-28T12:13:43.943Z,14.60
2019-02-28T12:18:49.976Z,16.27
2019-02-28T12:23:57.313Z,27.59
2019-02-28T12:29:01.566Z,24.79
2019-02-28T12:34:08.318Z,24.83
2019-02-28T12:39:14.379Z,17.56
2019-02-28T12:44:20.448Z,17.65
2019-02-28T12:49:27.654Z,18.97
2019-02-28T12:54:33.519Z,27.83
2019-02-28T12:59:38.061Z,19.35
2019-02-28T13:04:44.212Z,21.13
2019-02-28T13:09:51.557Z,22.30
2019-02-28T13:14:55.834Z,22.28
2019-02-28T13:20:01.968Z,22.40
2019-02-28T13:25:08.665Z,25.23
2019-02-28T13:30:14.698Z,27.35
2019-02-28T13:35:20.727Z,26.89
2019-02-28T13:40:26.727Z,40.86
2019-02-28T13:45:32.751Z,28.84
2019-02-28T13:50:38.789Z,26.41
2019-02-28T13:55:44.933Z,24.13
2019-02-28T14:00:51.061Z,23.55
2019-02-28T14:05:57.136Z,19.55
2019-02-28T14:11:05.775Z,19.02
2019-02-28T14:16:08.896Z,18.54
2019-02-28T14:21:14.866Z,17.15
2019-02-28T14:26:21.019Z,17.89
2019-02-28T14:31:29.539Z,18.59
2019-02-28T14:36:33.324Z,17.93
2019-02-28T14:41:39.954Z,27.34
2019-02-28T14:46:46.045Z,16.64
2019-02-28T14:51:52.210Z,14.67
2019-02-28T14:56:58.606Z,13.59
2019-02-28T15:02:04.711Z,11.62
2019-02-28T15:07:11.084Z,10.09
2019-02-28T15:12:20.259Z,14.37
2019-02-28T15:17:23.587Z,8.15
2019-02-28T15:22:29.641Z,8.54
2019-02-28T15:27:36.392Z,12.60
2019-02-28T15:32:41.239Z,11.37
2019-02-28T15:37:47.331Z,6.87
2019-02-28T15:42:53.477Z,7.69
2019-02-28T15:48:00.414Z,7.27
2019-02-28T15:53:07.718Z,6.52
2019-02-28T15:58:11.990Z,6.88
2019-02-28T16:03:18.016Z,6.44
2019-02-28T16:08:24.060Z,9.40
2019-02-28T16:13:32.885Z,5.72
2019-02-28T16:18:40.607Z,5.72
2019-02-28T16:23:44.655Z,5.33
2019-02-28T16:28:50.790Z,4.25
2019-02-28T16:34:04.882Z,3.05
2019-02-28T16:39:02.577Z,3.05
2019-02-28T16:44:08.752Z,5.10
2019-02-28T16:49:14.867Z,4.54
2019-02-28T16:54:22.574Z,12.95
2019-02-28T16:59:28.376Z,4.14
2019-02-28T17:04:32.091Z,3.07
2019-02-28T17:09:38.179Z,3.09
2019-02-28T17:14:47.893Z,2.99
2019-02-28T17:19:49.720Z,3.13
2019-02-28T17:24:56.066Z,3.14
2019-02-28T17:30:02.091Z,3.60
2019-02-28T17:35:08.155Z,4.95
2019-02-28T17:40:14.230Z,5.01
2019-02-28T17:45:20.285Z,3.58
2019-02-28T17:50:27.537Z,3.55
2019-02-28T17:55:32.133Z,3.42
2019-02-28T18:00:38.017Z,4.14
2019-02-28T18:05:43.995Z,3.84
2019-02-28T18:10:50.193Z,5.53
2019-02-28T18:15:56.538Z,3.81
2019-02-28T18:21:04.541Z,3.76
2019-02-28T18:26:08.721Z,5.71
2019-02-28T18:31:14.786Z,3.87
2019-02-28T18:36:20.788Z,6.22
2019-02-28T18:41:26.857Z,4.18
2019-02-28T18:46:32.879Z,3.86
2019-02-28T18:51:38.927Z,4.34
2019-02-28T18:56:44.928Z,4.32
2019-02-28T19:01:51.018Z,4.32
2019-02-28T19:06:57.009Z,6.53
2019-02-28T19:12:03.079Z,4.71
2019-02-28T19:17:09.078Z,6.70
2019-02-28T19:22:15.205Z,4.33
2019-02-28T19:27:21.449Z,6.66
2019-02-28T19:32:28.115Z,5.92
2019-02-28T19:37:34.386Z,4.90
2019-02-28T19:42:41.174Z,5.22
2019-02-28T19:47:47.654Z,5.39
2019-02-28T19:52:54.170Z,5.19
2019-02-28T19:57:58.393Z,5.40
2019-02-28T20:03:04.626Z,6.99
2019-02-28T20:08:11.071Z,8.19
2019-02-28T20:13:17.272Z,5.48
2019-02-28T20:18:23.491Z,5.59
2019-02-28T20:23:29.503Z,5.67
2019-02-28T20:28:35.871Z,5.39
2019-02-28T20:33:42.003Z,5.63
2019-02-28T20:38:48.467Z,8.39
2019-02-28T20:43:54.480Z,6.44
2019-02-28T20:49:00.870Z,6.06
2019-02-28T20:54:06.973Z,6.35
2019-02-28T20:59:13.194Z,6.24
2019-02-28T21:04:19.467Z,9.46
2019-02-28T21:09:25.508Z,9.55
2019-02-28T21:14:31.550Z,7.28
2019-02-28T21:19:37.594Z,7.10
2019-02-28T21:24:43.600Z,11.52
2019-02-28T21:29:49.836Z,8.09
2019-02-28T21:34:56.019Z,12.20
2019-02-28T21:40:02.067Z,8.60
2019-02-28T21:45:08.131Z,8.05
2019-02-28T21:50:14.135Z,8.88
2019-02-28T21:55:20.186Z,13.94
2019-02-28T22:00:26.204Z,9.28
2019-02-28T22:05:32.270Z,9.38
2019-02-28T22:10:38.385Z,10.20
2019-02-28T22:15:44.404Z,10.33
2019-02-28T22:20:50.442Z,16.16
2019-02-28T22:25:56.452Z,11.14
2019-02-28T22:31:02.488Z,15.66
2019-02-28T22:36:08.489Z,10.16
2019-02-28T22:41:14.513Z,13.62
2019-02-28T22:46:20.516Z,8.19
2019-02-28T22:51:26.491Z,8.35
2019-02-28T22:56:32.539Z,6.62
2019-02-28T23:01:38.530Z,6.18
2019-02-28T23:06:44.521Z,5.36
2019-02-28T23:11:50.508Z,4.30
2019-02-28T23:16:56.531Z,7.47
2019-02-28T23:22:02.522Z,4.05
2019-02-28T23:27:08.519Z,4.82
2019-02-28T23:32:14.517Z,6.84
2019-02-28T23:37:20.575Z,3.02
2019-02-28T23:42:26.568Z,2.60
2019-02-28T23:47:32.586Z,2.39
2019-02-28T23:52:38.565Z,2.42
2019-02-28T23:57:44.611Z,2.31
